Sharpsburg, Pennsylvania
Current Conditions -  °F | °C
As of 8:53 PM on Sunday 25 Jan 2015 (Local Time) from KAGC Reporting Station
Light Snow Light Snow  
Wind Chill: 31°   Ceiling: 300
Heat Index: 31°   Visibility: 0.75mi
Dew Point: 29°   Wind: 3mph
Humidity: 92%   Direction: 10°N
Pressure: 29.78"   Gusts: NA
Location:  40.5049°N, 79.9132°W
Report Text: KAGC 260153Z 01003KT 3/4SM R28/4000VP6000FT -SN BR OVC003 M01/M02 A2978 RMK AO2 SLP099 P0003 T10061017
Loading
Personal Weather Stations






























Interactive Weather Map New forecast layout! Learn more

10-Day Weather Forecast

Advertisements
Track Severe Weather on mobile